createdAt,value
2019-03-26T00:00:43.722Z,22.20
2019-03-26T00:01:21.858Z,22.70
2019-03-26T00:01:58.603Z,21.85
2019-03-26T00:02:34.975Z,21.75
2019-03-26T00:03:11.396Z,23.18
2019-03-26T00:03:47.888Z,20.23
2019-03-26T00:04:24.568Z,22.00
2019-03-26T00:05:01.205Z,21.60
2019-03-26T00:05:37.511Z,22.00
2019-03-26T00:06:13.939Z,22.20
2019-03-26T00:06:50.468Z,23.92
2019-03-26T00:07:27.282Z,24.02
2019-03-26T00:08:03.737Z,27.65
2019-03-26T00:08:39.979Z,27.50
2019-03-26T00:09:16.416Z,25.15
2019-03-26T00:09:52.736Z,24.05
2019-03-26T00:10:28.895Z,26.48
2019-03-26T00:11:05.180Z,26.93
2019-03-26T00:11:42.049Z,25.37
2019-03-26T00:12:18.675Z,29.98
2019-03-26T00:12:55.006Z,26.33
2019-03-26T00:13:31.371Z,24.70
2019-03-26T00:14:07.682Z,31.07
2019-03-26T00:14:44.073Z,27.80
2019-03-26T00:15:20.393Z,27.98
2019-03-26T00:15:56.810Z,28.05
2019-03-26T00:16:33.475Z,29.57
2019-03-26T00:17:11.010Z,32.33
2019-03-26T00:17:47.356Z,29.35
2019-03-26T00:18:23.598Z,31.85
2019-03-26T00:18:59.963Z,35.83
2019-03-26T00:19:36.307Z,29.25
2019-03-26T00:20:12.870Z,29.52
2019-03-26T00:20:49.224Z,30.10
2019-03-26T00:21:25.681Z,33.10
2019-03-26T00:22:02.576Z,30.52
2019-03-26T00:22:39.110Z,31.45
2019-03-26T00:23:15.524Z,34.85
2019-03-26T00:23:51.844Z,30.12
2019-03-26T00:24:28.422Z,36.17
2019-03-26T00:25:04.620Z,32.90
2019-03-26T00:25:40.872Z,34.60
2019-03-26T00:26:17.315Z,31.80
2019-03-26T00:26:53.767Z,30.32
2019-03-26T00:27:30.218Z,31.25
2019-03-26T00:28:07.042Z,29.85
2019-03-26T00:28:43.421Z,33.92
2019-03-26T00:29:19.779Z,29.12
2019-03-26T00:29:56.366Z,34.70
2019-03-26T00:30:32.686Z,30.75
2019-03-26T00:31:09.059Z,29.27
2019-03-26T00:31:45.764Z,33.05
2019-03-26T00:32:23.574Z,31.12
2019-03-26T00:33:00.154Z,33.55
2019-03-26T00:33:36.936Z,33.10
2019-03-26T00:34:19.215Z,31.48
2019-03-26T00:34:51.598Z,34.70
2019-03-26T00:35:27.909Z,36.85
2019-03-26T00:36:04.262Z,38.38
2019-03-26T00:36:40.789Z,36.03
2019-03-26T00:37:17.177Z,39.00
2019-03-26T00:37:53.665Z,36.80
2019-03-26T00:38:30.180Z,34.88
2019-03-26T00:39:07.766Z,32.65
2019-03-26T00:39:44.169Z,37.70
2019-03-26T00:40:20.841Z,35.35
2019-03-26T00:40:57.142Z,37.48
2019-03-26T00:41:33.648Z,35.33
2019-03-26T00:42:10.259Z,32.17
2019-03-26T00:42:46.676Z,42.60
2019-03-26T00:43:23.150Z,38.02
2019-03-26T00:43:59.581Z,35.78
2019-03-26T00:44:36.025Z,33.58
2019-03-26T00:45:12.647Z,36.08
2019-03-26T00:45:49.218Z,36.13
2019-03-26T00:46:25.612Z,38.45
2019-03-26T00:47:01.897Z,38.30
2019-03-26T00:47:38.460Z,38.58
2019-03-26T00:48:14.794Z,36.75
2019-03-26T00:48:51.497Z,35.00
2019-03-26T00:49:27.985Z,41.08
2019-03-26T00:50:04.626Z,34.40
2019-03-26T00:50:41.011Z,34.73
2019-03-26T00:51:17.750Z,39.58
2019-03-26T00:51:54.012Z,37.15
2019-03-26T00:52:30.440Z,39.30
2019-03-26T00:53:06.760Z,38.42
2019-03-26T00:53:43.288Z,36.68
2019-03-26T00:54:19.699Z,40.65
2019-03-26T00:54:56.165Z,41.50
2019-03-26T00:55:32.737Z,44.15
2019-03-26T00:56:09.010Z,39.63
2019-03-26T00:56:45.449Z,42.48
2019-03-26T00:57:21.728Z,43.75
2019-03-26T00:57:58.063Z,41.50
2019-03-26T00:58:34.519Z,43.38
2019-03-26T00:59:10.769Z,41.63
2019-03-26T00:59:47.214Z,45.88
2019-03-26T01:00:39.697Z,47.13
2019-03-26T01:01:16.186Z,50.95
2019-03-26T01:01:52.625Z,45.30
2019-03-26T01:02:29.175Z,47.23
2019-03-26T01:03:05.555Z,44.55
2019-03-26T01:03:42.011Z,44.80
2019-03-26T01:04:31.853Z,49.27
2019-03-26T01:04:56.512Z,47.95
2019-03-26T01:05:32.837Z,52.78
2019-03-26T01:06:09.302Z,48.70
2019-03-26T01:06:45.612Z,54.55
2019-03-26T01:07:22.033Z,51.10
2019-03-26T01:07:58.453Z,45.50
2019-03-26T01:08:34.943Z,48.90
2019-03-26T01:09:11.316Z,45.88
2019-03-26T01:09:48.012Z,41.63
2019-03-26T01:10:29.571Z,44.88
2019-03-26T01:11:06.046Z,43.65
2019-03-26T01:11:42.558Z,51.02
2019-03-26T01:12:18.962Z,54.33
2019-03-26T01:12:55.403Z,55.28
2019-03-26T01:13:32.114Z,45.85
2019-03-26T01:14:08.600Z,45.70
2019-03-26T01:14:45.079Z,46.70
2019-03-26T01:15:21.311Z,49.73
2019-03-26T01:15:57.664Z,39.27
2019-03-26T01:16:34.199Z,43.92
2019-03-26T01:17:10.600Z,46.18
2019-03-26T01:17:46.954Z,51.95
2019-03-26T01:18:23.403Z,48.78
2019-03-26T01:18:59.753Z,47.55
2019-03-26T01:19:36.189Z,44.55
2019-03-26T01:20:12.599Z,46.85
2019-03-26T01:20:49.021Z,43.00
2019-03-26T01:21:25.695Z,43.17
2019-03-26T01:22:02.372Z,48.60
2019-03-26T01:22:38.898Z,45.55
2019-03-26T01:23:15.353Z,45.80
2019-03-26T01:23:51.919Z,53.00
2019-03-26T01:24:28.344Z,41.53
2019-03-26T01:25:04.726Z,51.20
2019-03-26T01:25:41.138Z,50.35
2019-03-26T01:26:17.512Z,50.10
2019-03-26T01:26:53.967Z,45.92
2019-03-26T01:27:30.322Z,48.63
2019-03-26T01:28:06.955Z,61.00
2019-03-26T01:28:43.324Z,57.67
2019-03-26T01:29:20.043Z,51.73
2019-03-26T01:29:56.650Z,45.65
2019-03-26T01:30:33.043Z,51.13
2019-03-26T01:31:09.399Z,58.13
2019-03-26T01:31:46.073Z,49.30
2019-03-26T01:32:22.784Z,49.35
2019-03-26T01:32:59.401Z,48.78
2019-03-26T01:33:35.762Z,55.10
2019-03-26T01:34:12.207Z,47.83
2019-03-26T01:34:48.578Z,55.75
2019-03-26T01:35:25.083Z,52.78
2019-03-26T01:36:01.458Z,51.80
2019-03-26T01:36:37.801Z,57.10
2019-03-26T01:37:14.018Z,47.58
2019-03-26T01:37:50.530Z,52.62
2019-03-26T01:38:26.930Z,56.90
2019-03-26T01:39:03.310Z,55.60
2019-03-26T01:39:39.680Z,51.70
2019-03-26T01:40:16.275Z,51.37
2019-03-26T01:40:52.741Z,51.35
2019-03-26T01:41:29.333Z,49.83
2019-03-26T01:42:05.817Z,48.50
2019-03-26T01:42:42.763Z,55.08
2019-03-26T01:43:19.021Z,55.43
2019-03-26T01:43:55.690Z,46.85
2019-03-26T01:44:32.048Z,50.15
2019-03-26T01:45:09.609Z,46.90
2019-03-26T01:45:45.998Z,53.63
2019-03-26T01:46:22.429Z,47.27
2019-03-26T01:46:58.784Z,52.13
2019-03-26T01:47:34.984Z,49.70
2019-03-26T01:48:11.244Z,53.58
2019-03-26T01:48:47.549Z,46.77
2019-03-26T01:49:23.908Z,50.65
2019-03-26T01:50:00.345Z,52.83
2019-03-26T01:50:36.566Z,48.08
2019-03-26T01:51:12.947Z,53.40
2019-03-26T01:51:49.315Z,55.38
2019-03-26T01:52:25.684Z,46.68
2019-03-26T01:53:01.873Z,52.10
2019-03-26T01:53:38.303Z,47.50
2019-03-26T01:54:14.621Z,55.43
2019-03-26T01:54:50.995Z,53.02
2019-03-26T01:55:27.344Z,62.20
2019-03-26T01:56:03.795Z,59.83
2019-03-26T01:56:40.174Z,50.60
2019-03-26T01:57:16.865Z,52.90
2019-03-26T01:57:53.120Z,48.63
2019-03-26T01:58:29.648Z,53.45
2019-03-26T01:59:05.936Z,64.30
2019-03-26T01:59:42.478Z,57.17
2019-03-26T02:00:19.426Z,50.67
2019-03-26T02:00:55.875Z,58.68
2019-03-26T02:01:32.234Z,56.55
2019-03-26T02:02:08.568Z,51.77
2019-03-26T02:02:45.243Z,45.05
2019-03-26T02:03:21.646Z,45.65
2019-03-26T02:03:58.078Z,49.85
2019-03-26T02:04:34.417Z,49.00
2019-03-26T02:05:10.776Z,52.00
2019-03-26T02:05:47.169Z,63.33
2019-03-26T02:06:23.482Z,59.23
2019-03-26T02:06:59.830Z,60.25
2019-03-26T02:07:38.808Z,61.63
2019-03-26T02:08:14.009Z,57.95
2019-03-26T02:08:50.501Z,65.37
2019-03-26T02:09:26.741Z,67.53
2019-03-26T02:10:03.120Z,73.05
2019-03-26T02:10:39.526Z,60.52
2019-03-26T02:11:16.030Z,66.50
2019-03-26T02:11:52.519Z,62.17
2019-03-26T02:12:28.828Z,59.58
2019-03-26T02:13:05.283Z,65.75
2019-03-26T02:13:41.882Z,61.02
2019-03-26T02:14:18.210Z,58.55
2019-03-26T02:14:54.537Z,61.45
2019-03-26T02:15:32.428Z,67.85
2019-03-26T02:16:08.946Z,60.38
2019-03-26T02:16:45.318Z,48.17
2019-03-26T02:17:21.625Z,57.38
2019-03-26T02:17:57.879Z,65.08
2019-03-26T02:18:34.221Z,71.60
2019-03-26T02:19:10.740Z,62.33
2019-03-26T02:19:47.135Z,49.25
2019-03-26T02:20:23.511Z,53.78
2019-03-26T02:21:00.055Z,69.42
2019-03-26T02:21:36.491Z,64.65
2019-03-26T02:22:13.020Z,62.80
2019-03-26T02:22:49.039Z,69.50
2019-03-26T02:23:25.765Z,68.00
2019-03-26T02:24:02.315Z,66.87
2019-03-26T02:24:38.569Z,58.08
2019-03-26T02:25:14.982Z,65.45
2019-03-26T02:25:51.384Z,62.08
2019-03-26T02:26:27.845Z,52.80
2019-03-26T02:27:04.269Z,58.50
2019-03-26T02:27:40.624Z,62.80
2019-03-26T02:28:16.971Z,59.00
2019-03-26T02:28:53.843Z,58.95
2019-03-26T02:29:30.406Z,64.67
2019-03-26T02:30:07.108Z,57.40
2019-03-26T02:30:43.517Z,57.62
2019-03-26T02:31:20.059Z,59.20
2019-03-26T02:31:56.495Z,63.48
2019-03-26T02:32:32.965Z,49.98
2019-03-26T02:33:09.488Z,57.58
2019-03-26T02:33:45.785Z,55.17
2019-03-26T02:34:22.167Z,58.15
2019-03-26T02:34:58.535Z,59.83
2019-03-26T02:35:34.957Z,55.38
2019-03-26T02:36:11.192Z,57.25
2019-03-26T02:36:47.415Z,56.33
2019-03-26T02:37:23.791Z,58.90
2019-03-26T02:38:00.137Z,41.25
2019-03-26T02:38:36.850Z,39.75
2019-03-26T02:39:13.360Z,44.83
2019-03-26T02:39:49.764Z,45.43
2019-03-26T02:40:26.232Z,47.73
2019-03-26T02:41:02.704Z,40.85
2019-03-26T02:41:39.097Z,44.60
2019-03-26T02:42:15.640Z,47.43
2019-03-26T02:42:52.047Z,46.05
2019-03-26T02:43:28.590Z,45.23
2019-03-26T02:44:05.021Z,43.83
2019-03-26T02:44:41.355Z,39.18
2019-03-26T02:45:17.842Z,50.23
2019-03-26T02:45:54.390Z,46.63
2019-03-26T02:46:30.669Z,53.23
2019-03-26T02:47:06.871Z,55.60
2019-03-26T02:47:43.206Z,53.15
2019-03-26T02:48:19.781Z,53.02
2019-03-26T02:48:56.274Z,49.27
2019-03-26T02:49:32.662Z,47.83
2019-03-26T02:50:10.229Z,42.05
2019-03-26T02:50:46.545Z,46.90
2019-03-26T02:51:23.444Z,49.77
2019-03-26T02:52:00.005Z,43.83
2019-03-26T02:52:36.503Z,47.03
2019-03-26T02:53:14.586Z,47.70
2019-03-26T02:53:51.196Z,43.48
2019-03-26T02:54:27.688Z,43.38
2019-03-26T02:55:04.238Z,41.48
2019-03-26T02:55:41.086Z,47.30
2019-03-26T02:56:17.385Z,49.70
2019-03-26T02:56:53.718Z,48.55
2019-03-26T02:57:30.215Z,47.03
2019-03-26T02:58:06.823Z,49.98
2019-03-26T02:58:43.228Z,42.80
2019-03-26T02:59:19.843Z,42.75
2019-03-26T02:59:56.485Z,46.68
2019-03-26T03:00:33.467Z,43.05
2019-03-26T03:01:09.801Z,37.90
2019-03-26T03:01:46.315Z,41.88
2019-03-26T03:02:22.965Z,38.98
2019-03-26T03:02:59.401Z,40.05
2019-03-26T03:03:35.838Z,40.98
2019-03-26T03:04:12.102Z,41.63
2019-03-26T03:04:48.591Z,44.93
2019-03-26T03:05:34.937Z,41.55
2019-03-26T03:06:02.876Z,44.85
2019-03-26T03:06:39.248Z,47.17
2019-03-26T03:07:15.821Z,46.00
2019-03-26T03:07:52.522Z,42.62
2019-03-26T03:08:28.927Z,46.02
2019-03-26T03:09:06.817Z,52.90
2019-03-26T03:09:43.140Z,42.75
2019-03-26T03:10:19.774Z,49.67
2019-03-26T03:10:56.222Z,44.65
2019-03-26T03:11:32.915Z,48.42
2019-03-26T03:12:09.281Z,50.35
2019-03-26T03:12:45.691Z,47.95
2019-03-26T03:13:22.259Z,45.48
2019-03-26T03:13:58.864Z,46.58
2019-03-26T03:14:35.280Z,42.43
2019-03-26T03:15:11.890Z,47.93
2019-03-26T03:15:48.326Z,51.68
2019-03-26T03:16:24.768Z,51.13
2019-03-26T03:17:01.371Z,48.40
2019-03-26T03:17:37.642Z,47.10
2019-03-26T03:18:14.270Z,50.08
2019-03-26T03:18:50.588Z,54.63
2019-03-26T03:19:27.066Z,59.38
2019-03-26T03:20:04.298Z,61.98
2019-03-26T03:20:40.781Z,54.13
2019-03-26T03:21:17.103Z,49.33
2019-03-26T03:21:53.449Z,52.53
2019-03-26T03:22:30.058Z,54.67
2019-03-26T03:23:07.060Z,56.92
2019-03-26T03:23:43.295Z,56.58
2019-03-26T03:24:19.632Z,46.15
2019-03-26T03:24:56.058Z,51.95
2019-03-26T03:25:33.184Z,49.20
2019-03-26T03:26:09.621Z,54.73
2019-03-26T03:26:45.933Z,42.25
2019-03-26T03:27:23.400Z,48.95
2019-03-26T03:28:00.037Z,51.25
2019-03-26T03:28:36.409Z,52.15
2019-03-26T03:29:12.826Z,48.98
2019-03-26T03:29:49.400Z,46.23
2019-03-26T03:30:25.740Z,48.13
2019-03-26T03:31:02.076Z,42.48
2019-03-26T03:31:38.452Z,42.23
2019-03-26T03:32:15.107Z,45.33
2019-03-26T03:32:52.048Z,49.83
2019-03-26T03:33:28.430Z,48.85
2019-03-26T03:34:04.829Z,47.15
2019-03-26T03:34:41.334Z,50.08
2019-03-26T03:35:17.710Z,60.05
2019-03-26T03:35:54.187Z,47.60
2019-03-26T03:36:30.649Z,42.98
2019-03-26T03:37:07.093Z,44.63
2019-03-26T03:37:43.655Z,56.42
2019-03-26T03:38:20.121Z,38.35
2019-03-26T03:38:56.536Z,47.53
2019-03-26T03:39:32.963Z,44.80
2019-03-26T03:40:09.901Z,47.48
2019-03-26T03:40:46.430Z,44.73
2019-03-26T03:41:22.788Z,48.25
2019-03-26T03:41:59.109Z,50.00
2019-03-26T03:42:35.872Z,47.95
2019-03-26T03:43:12.426Z,40.92
2019-03-26T03:43:48.889Z,45.35
2019-03-26T03:44:25.270Z,50.80
2019-03-26T03:45:01.626Z,45.48
2019-03-26T03:45:39.426Z,48.45
2019-03-26T03:46:15.966Z,44.00
2019-03-26T03:46:54.030Z,48.52
2019-03-26T03:47:33.901Z,46.10
2019-03-26T03:48:11.266Z,48.35
2019-03-26T03:48:48.145Z,43.83
2019-03-26T03:49:26.164Z,46.48
2019-03-26T03:50:02.987Z,46.20
2019-03-26T03:50:39.947Z,37.95
2019-03-26T03:51:19.243Z,50.55
2019-03-26T03:51:57.160Z,54.63
2019-03-26T03:52:39.734Z,42.40
2019-03-26T03:53:18.079Z,48.42
2019-03-26T03:53:54.373Z,49.75
2019-03-26T03:54:31.992Z,47.30
2019-03-26T03:55:08.585Z,44.50
2019-03-26T03:55:45.442Z,44.75
2019-03-26T03:56:23.870Z,49.70
2019-03-26T03:57:01.892Z,43.87
2019-03-26T03:57:39.797Z,47.53
2019-03-26T03:58:17.388Z,46.55
2019-03-26T03:58:53.701Z,45.03
2019-03-26T03:59:32.123Z,45.00
2019-03-26T04:00:09.665Z,42.35
2019-03-26T04:00:46.138Z,45.40
2019-03-26T04:01:22.510Z,46.77
2019-03-26T04:01:59.128Z,44.95
2019-03-26T04:02:35.494Z,42.88
2019-03-26T04:03:12.360Z,45.30
2019-03-26T04:03:48.715Z,42.25
2019-03-26T04:04:25.008Z,45.75
2019-03-26T04:05:01.605Z,44.77
2019-03-26T04:05:38.262Z,46.88
2019-03-26T04:06:14.822Z,44.30
2019-03-26T04:06:51.212Z,43.90
2019-03-26T04:07:27.877Z,47.65
2019-03-26T04:08:04.393Z,47.10
2019-03-26T04:08:40.794Z,43.65
2019-03-26T04:09:17.121Z,44.50
2019-03-26T04:09:53.485Z,45.05
2019-03-26T04:10:29.849Z,46.45
2019-03-26T04:11:06.279Z,45.33
2019-03-26T04:11:42.780Z,44.27
2019-03-26T04:12:19.353Z,42.25
2019-03-26T04:12:55.973Z,50.60
2019-03-26T04:13:32.313Z,44.38
2019-03-26T04:14:08.769Z,40.98
2019-03-26T04:14:45.133Z,41.05
2019-03-26T04:15:21.561Z,47.45
2019-03-26T04:15:57.939Z,45.60
2019-03-26T04:16:34.189Z,45.70
2019-03-26T04:17:10.505Z,51.00
2019-03-26T04:17:46.908Z,46.63
2019-03-26T04:18:23.366Z,46.73
2019-03-26T04:18:59.813Z,42.70
2019-03-26T04:19:36.053Z,52.88
2019-03-26T04:20:12.572Z,42.15
2019-03-26T04:20:49.056Z,47.23
2019-03-26T04:21:25.410Z,46.42
2019-03-26T04:22:01.785Z,45.55
2019-03-26T04:22:38.069Z,43.55
2019-03-26T04:23:14.602Z,43.80
2019-03-26T04:23:50.994Z,42.08
2019-03-26T04:24:27.492Z,49.88
2019-03-26T04:25:03.853Z,47.55
2019-03-26T04:25:40.298Z,48.48
2019-03-26T04:26:16.904Z,53.13
2019-03-26T04:26:53.272Z,47.78
2019-03-26T04:27:29.786Z,50.73
2019-03-26T04:28:06.728Z,46.25
2019-03-26T04:28:43.276Z,44.20
2019-03-26T04:29:19.810Z,47.38
2019-03-26T04:29:56.152Z,44.85
2019-03-26T04:30:33.877Z,48.52
2019-03-26T04:31:10.284Z,50.38
2019-03-26T04:31:46.459Z,51.83
2019-03-26T04:32:22.821Z,40.10
2019-03-26T04:32:59.290Z,45.33
2019-03-26T04:33:35.925Z,37.42
2019-03-26T04:34:12.240Z,41.90
2019-03-26T04:34:48.782Z,46.65
2019-03-26T04:35:25.090Z,46.02
2019-03-26T04:36:01.716Z,52.78
2019-03-26T04:36:38.205Z,44.18
2019-03-26T04:37:14.525Z,44.55
2019-03-26T04:37:51.177Z,45.90
2019-03-26T04:38:27.502Z,44.48
2019-03-26T04:39:04.068Z,44.38
2019-03-26T04:39:40.974Z,48.38
2019-03-26T04:40:17.209Z,43.20
2019-03-26T04:40:53.737Z,46.95
2019-03-26T04:41:30.255Z,46.50
2019-03-26T04:42:06.657Z,55.33
2019-03-26T04:42:43.003Z,50.28
2019-03-26T04:43:19.623Z,46.20
2019-03-26T04:43:55.985Z,45.52
2019-03-26T04:44:32.292Z,48.55
2019-03-26T04:45:08.819Z,52.83
2019-03-26T04:45:45.440Z,48.55
2019-03-26T04:46:21.682Z,49.25
2019-03-26T04:46:58.143Z,45.88
2019-03-26T04:47:34.391Z,53.70
2019-03-26T04:48:10.976Z,50.03
2019-03-26T04:48:47.424Z,53.20
2019-03-26T04:49:23.964Z,51.60
2019-03-26T04:50:00.398Z,51.80
2019-03-26T04:50:36.847Z,52.13
2019-03-26T04:51:13.192Z,49.65
2019-03-26T04:51:49.553Z,53.42
2019-03-26T04:52:26.014Z,54.65
2019-03-26T04:53:02.437Z,51.18
2019-03-26T04:53:38.846Z,51.98
2019-03-26T04:54:15.254Z,50.85
2019-03-26T04:54:51.818Z,51.45
2019-03-26T04:55:28.297Z,45.48
2019-03-26T04:56:04.667Z,56.80
2019-03-26T04:56:41.040Z,49.42
2019-03-26T04:57:17.349Z,51.77
2019-03-26T04:57:53.713Z,51.05
2019-03-26T04:58:30.054Z,51.73
2019-03-26T04:59:06.513Z,50.45
2019-03-26T04:59:42.830Z,50.25
2019-03-26T05:00:20.390Z,53.38
2019-03-26T05:00:56.857Z,51.05
2019-03-26T05:01:33.223Z,51.55
2019-03-26T05:02:09.579Z,56.58
2019-03-26T05:02:45.879Z,50.50
2019-03-26T05:03:23.190Z,54.08
2019-03-26T05:03:59.554Z,56.45
2019-03-26T05:04:35.912Z,54.60
2019-03-26T05:05:12.596Z,52.53
2019-03-26T05:05:48.988Z,51.30
2019-03-26T05:06:37.401Z,48.17
2019-03-26T05:07:03.534Z,52.15
2019-03-26T05:07:39.798Z,50.17
2019-03-26T05:08:16.625Z,51.30
2019-03-26T05:08:52.966Z,50.10
2019-03-26T05:09:29.573Z,49.95
2019-03-26T05:10:06.743Z,48.38
2019-03-26T05:10:43.147Z,57.00
2019-03-26T05:11:19.730Z,58.58
2019-03-26T05:11:56.171Z,56.13
2019-03-26T05:12:32.648Z,64.37
2019-03-26T05:13:08.996Z,60.73
2019-03-26T05:13:45.740Z,52.15
2019-03-26T05:14:22.127Z,57.85
2019-03-26T05:14:58.568Z,62.17
2019-03-26T05:15:34.874Z,55.25
2019-03-26T05:16:11.367Z,68.07
2019-03-26T05:16:47.993Z,55.08
2019-03-26T05:17:24.457Z,52.58
2019-03-26T05:18:01.022Z,57.10
2019-03-26T05:18:37.590Z,51.13
2019-03-26T05:19:13.879Z,54.33
2019-03-26T05:19:50.398Z,57.08
2019-03-26T05:20:26.740Z,60.33
2019-03-26T05:21:03.084Z,53.40
2019-03-26T05:21:39.541Z,54.95
2019-03-26T05:22:24.170Z,39.73
2019-03-26T05:22:54.047Z,52.23
2019-03-26T05:23:30.416Z,52.20
2019-03-26T05:24:06.671Z,49.08
2019-03-26T05:24:43.355Z,45.70
2019-03-26T05:25:20.270Z,48.85
2019-03-26T05:25:57.369Z,51.28
2019-03-26T05:26:33.913Z,49.20
2019-03-26T05:27:11.264Z,46.92
2019-03-26T05:27:47.790Z,48.23
2019-03-26T05:28:24.244Z,44.50
2019-03-26T05:29:00.578Z,43.30
2019-03-26T05:29:37.389Z,49.48
2019-03-26T05:30:14.530Z,41.60
2019-03-26T05:30:50.954Z,42.60
2019-03-26T05:31:27.307Z,43.80
2019-03-26T05:32:03.752Z,41.88
2019-03-26T05:32:40.222Z,40.03
2019-03-26T05:33:16.605Z,42.62
2019-03-26T05:33:52.964Z,42.50
2019-03-26T05:34:29.368Z,46.65
2019-03-26T05:35:06.027Z,45.43
2019-03-26T05:35:42.555Z,36.85
2019-03-26T05:36:18.913Z,42.35
2019-03-26T05:36:55.530Z,43.48
2019-03-26T05:37:31.844Z,41.42
2019-03-26T05:38:08.590Z,43.85
2019-03-26T05:38:45.334Z,41.15
2019-03-26T05:39:21.736Z,44.95
2019-03-26T05:39:58.185Z,40.85
2019-03-26T05:40:34.510Z,42.35
2019-03-26T05:41:11.229Z,38.95
2019-03-26T05:41:47.600Z,40.75
2019-03-26T05:42:24.287Z,44.65
2019-03-26T05:43:00.639Z,32.85
2019-03-26T05:43:37.502Z,33.98
2019-03-26T05:44:14.143Z,36.28
2019-03-26T05:44:50.383Z,33.58
2019-03-26T05:45:26.749Z,33.70
2019-03-26T05:46:03.330Z,36.90
2019-03-26T05:46:39.835Z,38.58
2019-03-26T05:47:16.135Z,39.88
2019-03-26T05:47:52.492Z,39.65
2019-03-26T05:48:28.878Z,36.75
2019-03-26T05:49:05.552Z,33.92
2019-03-26T05:49:42.334Z,34.75
2019-03-26T05:50:18.955Z,37.98
2019-03-26T05:50:55.517Z,38.38
2019-03-26T05:51:32.041Z,33.58
2019-03-26T05:52:08.831Z,33.18
2019-03-26T05:52:45.291Z,36.70
2019-03-26T05:53:21.719Z,36.05
2019-03-26T05:53:58.573Z,35.48
2019-03-26T05:54:35.059Z,37.75
2019-03-26T05:55:11.449Z,37.53
2019-03-26T05:55:47.817Z,41.85
2019-03-26T05:56:24.257Z,39.90
2019-03-26T05:57:00.798Z,36.75
2019-03-26T05:57:37.629Z,39.73
2019-03-26T05:58:13.820Z,42.25
2019-03-26T05:58:50.197Z,41.68
2019-03-26T05:59:27.342Z,38.38
2019-03-26T06:00:03.707Z,42.05
2019-03-26T06:00:40.768Z,44.20
2019-03-26T06:01:17.277Z,40.85
2019-03-26T06:01:53.579Z,34.43
2019-03-26T06:02:29.860Z,35.43
2019-03-26T06:03:06.202Z,36.77
2019-03-26T06:03:42.568Z,38.40
2019-03-26T06:04:19.190Z,36.75
2019-03-26T06:04:55.488Z,34.08
2019-03-26T06:05:31.842Z,33.50
2019-03-26T06:06:08.236Z,29.75
2019-03-26T06:06:44.744Z,25.75
2019-03-26T06:07:21.211Z,30.20
2019-03-26T06:07:57.770Z,31.23
2019-03-26T06:08:34.073Z,27.20
2019-03-26T06:09:10.561Z,27.52
2019-03-26T06:09:47.399Z,23.30
2019-03-26T06:10:23.702Z,22.82
2019-03-26T06:11:00.141Z,30.37
2019-03-26T06:11:36.572Z,22.87
2019-03-26T06:12:12.988Z,29.30
2019-03-26T06:12:50.404Z,26.12
2019-03-26T06:13:26.685Z,29.77
2019-03-26T06:14:03.255Z,23.50
2019-03-26T06:14:39.632Z,27.67
2019-03-26T06:15:16.053Z,28.42
2019-03-26T06:15:52.527Z,25.02
2019-03-26T06:16:38.301Z,23.55
2019-03-26T06:17:07.182Z,24.57
2019-03-26T06:17:43.714Z,28.35
2019-03-26T06:18:19.923Z,22.45
2019-03-26T06:18:56.271Z,25.35
2019-03-26T06:19:32.670Z,30.95
2019-03-26T06:20:10.742Z,23.00
2019-03-26T06:20:47.634Z,29.90
2019-03-26T06:21:24.216Z,25.55
2019-03-26T06:22:00.638Z,19.98
2019-03-26T06:22:37.721Z,22.22
2019-03-26T06:23:14.126Z,27.02
2019-03-26T06:23:53.493Z,21.97
2019-03-26T06:24:28.486Z,20.52
2019-03-26T06:25:05.246Z,21.27
2019-03-26T06:25:41.732Z,22.65
2019-03-26T06:26:18.398Z,21.85
2019-03-26T06:26:54.693Z,20.45
2019-03-26T06:27:31.014Z,23.95
2019-03-26T06:28:07.258Z,21.30
2019-03-26T06:28:43.697Z,23.35
2019-03-26T06:29:20.383Z,20.37
2019-03-26T06:29:56.734Z,18.65
2019-03-26T06:30:33.190Z,22.17
2019-03-26T06:31:09.638Z,20.62
2019-03-26T06:31:46.235Z,21.20
2019-03-26T06:32:22.561Z,20.72
2019-03-26T06:32:59.106Z,17.82
2019-03-26T06:33:35.661Z,22.20
2019-03-26T06:34:12.239Z,19.62
2019-03-26T06:34:48.864Z,19.32
2019-03-26T06:35:25.325Z,19.23
2019-03-26T06:36:01.594Z,34.75
2019-03-26T06:36:37.833Z,34.65
2019-03-26T06:37:18.137Z,39.60
2019-03-26T06:37:52.796Z,17.02
2019-03-26T06:38:29.076Z,16.23
2019-03-26T06:39:06.992Z,26.20
2019-03-26T06:39:43.209Z,25.05
2019-03-26T06:40:19.822Z,24.18
2019-03-26T06:40:56.217Z,31.70
2019-03-26T06:41:32.683Z,18.17
2019-03-26T06:42:09.095Z,29.63
2019-03-26T06:42:45.622Z,20.50
2019-03-26T06:43:22.112Z,30.68
2019-03-26T06:43:58.455Z,25.62
2019-03-26T06:44:34.771Z,23.42
2019-03-26T06:45:11.889Z,24.32
2019-03-26T06:45:48.135Z,18.30
2019-03-26T06:46:24.571Z,28.00
2019-03-26T06:47:00.989Z,16.48
2019-03-26T06:47:37.927Z,14.10
2019-03-26T06:48:14.400Z,13.25
2019-03-26T06:48:50.765Z,22.48
2019-03-26T06:49:27.034Z,16.93
2019-03-26T06:50:03.616Z,19.57
2019-03-26T06:50:40.000Z,15.43
2019-03-26T06:51:16.378Z,12.93
2019-03-26T06:51:52.918Z,17.90
2019-03-26T06:52:29.422Z,18.65
2019-03-26T06:53:06.082Z,17.73
2019-03-26T06:53:42.613Z,13.18
2019-03-26T06:54:18.945Z,14.00
2019-03-26T06:54:55.655Z,18.73
2019-03-26T06:55:32.065Z,16.10
2019-03-26T06:56:08.301Z,13.80
2019-03-26T06:56:44.871Z,16.15
2019-03-26T06:57:21.130Z,15.95
2019-03-26T06:57:57.467Z,16.97
2019-03-26T06:58:33.745Z,17.17
2019-03-26T06:59:10.148Z,16.87
2019-03-26T06:59:46.893Z,14.70
2019-03-26T07:00:32.018Z,13.98
2019-03-26T07:01:08.644Z,17.30
2019-03-26T07:01:45.256Z,16.00
2019-03-26T07:02:21.980Z,19.85
2019-03-26T07:02:58.304Z,22.27
2019-03-26T07:03:34.876Z,18.05
2019-03-26T07:04:11.467Z,17.32
2019-03-26T07:04:51.628Z,18.60
2019-03-26T07:05:27.977Z,19.73
2019-03-26T07:06:04.482Z,18.45
2019-03-26T07:06:41.097Z,17.82
2019-03-26T07:07:30.544Z,18.17
2019-03-26T07:07:56.286Z,22.15
2019-03-26T07:08:32.816Z,15.93
2019-03-26T07:09:10.007Z,18.85
2019-03-26T07:09:46.264Z,17.27
2019-03-26T07:10:27.211Z,16.32
2019-03-26T07:11:03.676Z,20.00
2019-03-26T07:11:40.560Z,20.02
2019-03-26T07:12:17.075Z,20.20
2019-03-26T07:12:53.418Z,17.15
2019-03-26T07:13:29.884Z,14.78
2019-03-26T07:14:06.465Z,17.82
2019-03-26T07:14:42.884Z,22.55
2019-03-26T07:15:19.278Z,20.30
2019-03-26T07:15:55.627Z,16.30
2019-03-26T07:16:32.096Z,21.17
2019-03-26T07:17:08.631Z,16.93
2019-03-26T07:17:45.220Z,21.45
2019-03-26T07:18:21.549Z,19.32
2019-03-26T07:18:58.202Z,25.10
2019-03-26T07:19:34.664Z,18.52
2019-03-26T07:20:11.537Z,21.93
2019-03-26T07:20:48.102Z,19.32
2019-03-26T07:21:24.546Z,14.18
2019-03-26T07:22:01.047Z,18.98
2019-03-26T07:22:37.516Z,19.30
2019-03-26T07:23:13.745Z,17.05
2019-03-26T07:23:50.142Z,18.00
2019-03-26T07:24:26.542Z,20.32
2019-03-26T07:25:02.960Z,21.82
2019-03-26T07:25:39.416Z,15.58
2019-03-26T07:26:16.066Z,20.62
2019-03-26T07:26:52.443Z,21.48
2019-03-26T07:27:29.241Z,18.73
2019-03-26T07:28:05.667Z,18.60
2019-03-26T07:28:42.084Z,21.95
2019-03-26T07:29:18.485Z,18.73
2019-03-26T07:29:54.963Z,21.52
2019-03-26T07:30:56.164Z,20.30
2019-03-26T07:31:32.496Z,17.98
2019-03-26T07:32:08.866Z,23.27
2019-03-26T07:32:45.202Z,18.98
2019-03-26T07:33:21.428Z,17.55
2019-03-26T07:33:58.325Z,18.90
2019-03-26T07:34:34.625Z,21.55
2019-03-26T07:35:10.998Z,20.37
2019-03-26T07:35:47.408Z,20.37
2019-03-26T07:36:23.704Z,16.80
2019-03-26T07:36:59.885Z,17.10
2019-03-26T07:37:45.059Z,16.48
2019-03-26T07:38:14.143Z,19.75
2019-03-26T07:38:50.619Z,18.35
2019-03-26T07:39:27.285Z,16.82
2019-03-26T07:40:03.605Z,17.70
2019-03-26T07:40:40.050Z,22.20
2019-03-26T07:41:16.315Z,14.80
2019-03-26T07:41:52.605Z,15.45
2019-03-26T07:42:29.054Z,16.27
2019-03-26T07:43:05.901Z,18.95
2019-03-26T07:43:42.444Z,19.27
2019-03-26T07:44:18.899Z,16.85
2019-03-26T07:44:55.520Z,15.65
2019-03-26T07:45:31.876Z,17.40
2019-03-26T07:46:08.102Z,15.38
2019-03-26T07:46:44.541Z,18.12
2019-03-26T07:47:20.886Z,17.27
2019-03-26T07:47:57.292Z,23.75
2019-03-26T07:48:33.855Z,23.12
2019-03-26T07:49:10.397Z,22.60
2019-03-26T07:49:46.759Z,20.82
2019-03-26T07:50:23.120Z,19.95
2019-03-26T07:50:59.461Z,19.77
2019-03-26T07:51:36.203Z,20.65
2019-03-26T07:52:15.456Z,18.75